Time,TemperatureF,DewpointF,PressureIn,WindDirection,WindDirectionDegrees,WindSpeedMPH,WindSpeedGustMPH,Humidity,HourlyPrecipIn,Conditions,Clouds,dailyrainin,SoftwareType,DateUTC
2013-06-17 00:01:00,72.3,62.8,30.04,NNE,22,0.0,0.0,72,0.00,,CLR,0.00,VWS V12.08,2013-06-17 04:01:00,
2013-06-17 00:02:00,72.3,62.8,30.04,NNE,22,0.0,0.0,72,0.00,,CLR,0.00,VWS V12.08,2013-06-17 04:02:00,
2013-06-17 00:03:00,72.3,62.4,30.04,NNE,22,0.0,0.0,71,0.00,,CLR,0.00,VWS V12.08,2013-06-17 04:03:00,
2013-06-17 00:08:00,72.5,62.6,30.04,North,0,0.0,0.0,71,0.00,,CLR,0.00,VWS V12.08,2013-06-17 04:08:00,
2013-06-17 00:13:00,72.5,62.6,30.04,ENE,68,0.0,0.0,71,0.00,,CLR,0.00,VWS V12.08,2013-06-17 04:13:00,
2013-06-17 00:18:00,72.7,62.3,30.04,ESE,112,0.0,0.0,70,0.00,,CLR,0.00,VWS V12.08,2013-06-17 04:18:00,
2013-06-17 00:23:00,73.0,62.7,30.04,East,90,0.0,0.0,70,0.00,,CLR,0.00,VWS V12.08,2013-06-17 04:23:00,
2013-06-17 00:28:00,73.0,62.7,30.04,East,90,0.0,0.0,70,0.00,,CLR,0.00,VWS V12.08,2013-06-17 04:28:00,
2013-06-17 00:33:00,73.4,63.0,30.04,East,90,0.0,0.0,70,0.00,,CLR,0.00,VWS V12.08,2013-06-17 04:33:00,
2013-06-17 00:38:00,73.4,63.0,30.04,NNE,22,0.0,0.0,70,0.00,,CLR,0.00,VWS V12.08,2013-06-17 04:38:00,
2013-06-17 00:43:00,73.6,63.2,30.04,NNW,338,0.0,0.0,70,0.00,,CLR,0.00,VWS V12.08,2013-06-17 04:43:00,
2013-06-17 00:48:00,73.2,63.3,30.04,WNW,292,0.0,0.0,71,0.00,,CLR,0.00,VWS V12.08,2013-06-17 04:48:00,
2013-06-17 00:53:00,73.0,63.1,30.04,NE,45,0.0,0.0,71,0.00,,CLR,0.00,VWS V12.08,2013-06-17 04:53:00,
2013-06-17 00:58:00,72.9,62.9,30.04,ENE,68,0.0,0.0,71,0.00,,CLR,0.00,VWS V12.08,2013-06-17 04:58:00,
2013-06-17 01:03:00,72.7,62.7,30.04,ENE,68,0.0,0.0,71,0.00,,CLR,0.00,VWS V12.08,2013-06-17 05:03:00,
2013-06-17 01:08:00,72.5,63.0,30.04,ENE,68,0.0,0.0,72,0.00,,CLR,0.00,VWS V12.08,2013-06-17 05:08:00,
2013-06-17 01:13:00,72.3,63.2,30.03,ENE,68,0.0,0.0,73,0.00,,CLR,0.00,VWS V12.08,2013-06-17 05:13:00,
2013-06-17 01:18:00,72.0,63.2,30.04,WNW,292,0.0,0.0,74,0.00,,CLR,0.00,VWS V12.08,2013-06-17 05:18:00,
2013-06-17 01:23:00,72.0,63.2,30.04,WNW,292,0.0,0.0,74,0.00,,CLR,0.00,VWS V12.08,2013-06-17 05:23:00,
2013-06-17 01:28:00,71.8,63.1,30.04,WNW,292,0.0,0.0,74,0.00,,CLR,0.00,VWS V12.08,2013-06-17 05:28:00,
2013-06-17 01:33:00,71.4,63.1,30.04,WNW,292,0.0,0.0,75,0.00,,CLR,0.00,VWS V12.08,2013-06-17 05:33:00,
2013-06-17 01:38:00,71.4,63.1,30.03,WNW,292,0.0,0.0,75,0.00,,CLR,0.00,VWS V12.08,2013-06-17 05:38:00,
2013-06-17 01:43:00,71.4,63.1,30.03,NW,315,0.0,0.0,75,0.00,,CLR,0.00,VWS V12.08,2013-06-17 05:43:00,
2013-06-17 01:48:00,71.2,63.3,30.03,NW,315,0.0,0.0,76,0.00,,CLR,0.00,VWS V12.08,2013-06-17 05:48:00,
2013-06-17 01:53:00,71.1,63.1,30.04,NW,315,0.0,0.0,76,0.00,,CLR,0.00,VWS V12.08,2013-06-17 05:53:00,
2013-06-17 01:58:00,70.9,63.0,30.03,NW,315,0.0,0.0,76,0.00,,CLR,0.00,VWS V12.08,2013-06-17 05:58:00,
2013-06-17 02:03:00,70.7,62.8,30.03,NW,315,0.0,0.0,76,0.00,,CLR,0.00,VWS V12.08,2013-06-17 06:03:00,
2013-06-17 02:08:00,70.7,62.8,30.03,NW,315,0.0,0.0,76,0.00,,CLR,0.00,VWS V12.08,2013-06-17 06:08:00,
2013-06-17 02:13:00,70.5,62.6,30.02,ENE,68,0.0,0.0,76,0.00,,CLR,0.00,VWS V12.08,2013-06-17 06:13:00,
2013-06-17 02:18:00,70.5,62.6,30.03,ENE,68,0.0,0.0,76,0.00,,CLR,0.00,VWS V12.08,2013-06-17 06:18:00,
2013-06-17 02:23:00,70.3,62.4,30.03,ENE,68,0.0,0.0,76,0.00,,CLR,0.00,VWS V12.08,2013-06-17 06:23:00,
2013-06-17 02:28:00,70.3,62.8,30.03,ENE,68,0.0,0.0,77,0.00,,CLR,0.00,VWS V12.08,2013-06-17 06:28:00,
2013-06-17 02:33:00,70.3,62.8,30.03,ENE,68,0.0,0.0,77,0.00,,CLR,0.00,VWS V12.08,2013-06-17 06:33:00,
2013-06-17 02:38:00,70.2,62.6,30.03,ENE,68,0.0,0.0,77,0.00,,CLR,0.00,VWS V12.08,2013-06-17 06:38:00,
2013-06-17 02:43:00,70.0,62.5,30.02,ENE,68,0.0,0.0,77,0.00,,CLR,0.00,VWS V12.08,2013-06-17 06:43:00,
2013-06-17 02:48:00,70.0,62.5,30.02,ENE,68,0.0,0.0,77,0.00,,CLR,0.00,VWS V12.08,2013-06-17 06:48:00,
2013-06-17 02:53:00,69.8,62.3,30.02,ENE,68,0.0,0.0,77,0.00,,CLR,0.00,VWS V12.08,2013-06-17 06:53:00,
2013-06-17 02:58:00,69.6,62.5,30.02,ENE,68,0.0,0.0,78,0.00,,CLR,0.00,VWS V12.08,2013-06-17 06:58:00,
2013-06-17 03:03:00,69.6,62.5,30.02,ENE,68,0.0,0.0,78,0.00,,CLR,0.00,VWS V12.08,2013-06-17 07:03:00,
2013-06-17 03:08:00,69.6,62.5,30.02,ENE,68,0.0,0.0,78,0.00,,CLR,0.00,VWS V12.08,2013-06-17 07:08:00,
2013-06-17 03:13:00,69.4,62.3,30.02,East,90,0.0,0.0,78,0.00,,CLR,0.00,VWS V12.08,2013-06-17 07:13:00,
2013-06-17 03:18:00,69.4,62.3,30.02,East,90,0.0,0.0,78,0.00,,CLR,0.00,VWS V12.08,2013-06-17 07:18:00,
2013-06-17 03:23:00,69.4,62.3,30.02,East,90,0.0,0.0,78,0.00,,CLR,0.00,VWS V12.08,2013-06-17 07:23:00,
2013-06-17 03:28:00,69.4,62.3,30.02,East,90,0.0,0.0,78,0.00,,CLR,0.00,VWS V12.08,2013-06-17 07:28:00,
2013-06-17 03:33:00,69.4,62.7,30.02,East,90,0.0,0.0,79,0.00,,CLR,0.00,VWS V12.08,2013-06-17 07:33:00,
2013-06-17 03:38:00,69.4,62.7,30.02,East,90,0.0,0.0,79,0.00,,CLR,0.00,VWS V12.08,2013-06-17 07:38:00,
2013-06-17 03:43:00,69.3,62.5,30.02,East,90,0.0,0.0,79,0.00,,CLR,0.00,VWS V12.08,2013-06-17 07:43:00,
2013-06-17 03:48:00,69.3,62.5,30.02,East,90,0.0,0.0,79,0.00,,CLR,0.00,VWS V12.08,2013-06-17 07:48:00,
2013-06-17 03:53:00,69.1,62.3,30.02,East,90,0.0,0.0,79,0.00,,CLR,0.00,VWS V12.08,2013-06-17 07:53:00,
2013-06-17 03:58:00,69.1,62.7,30.02,East,90,0.0,0.0,80,0.00,,CLR,0.00,VWS V12.08,2013-06-17 07:58:00,
2013-06-17 04:03:00,69.1,62.7,30.01,East,90,0.0,0.0,80,0.00,,CLR,0.00,VWS V12.08,2013-06-17 08:03:00,
2013-06-17 04:08:00,69.1,62.7,30.01,East,90,0.0,0.0,80,0.00,,CLR,0.00,VWS V12.08,2013-06-17 08:08:00,
2013-06-17 04:13:00,68.9,62.5,30.01,ESE,112,0.0,0.0,80,0.00,,CLR,0.00,VWS V12.08,2013-06-17 08:13:00,
2013-06-17 04:18:00,68.7,62.3,30.02,ESE,112,0.0,0.0,80,0.00,,CLR,0.00,VWS V12.08,2013-06-17 08:18:00,
2013-06-17 04:23:00,68.7,62.3,30.02,ESE,112,0.0,0.0,80,0.00,,CLR,0.00,VWS V12.08,2013-06-17 08:23:00,
2013-06-17 04:28:00,68.7,62.3,30.02,ESE,112,0.0,0.0,80,0.00,,CLR,0.00,VWS V12.08,2013-06-17 08:28:00,
2013-06-17 04:33:00,68.7,62.7,30.02,ESE,112,0.0,0.0,81,0.00,,CLR,0.00,VWS V12.08,2013-06-17 08:33:00,
2013-06-17 04:38:00,68.7,62.7,30.02,ESE,112,0.0,0.0,81,0.00,,CLR,0.00,VWS V12.08,2013-06-17 08:38:00,
2013-06-17 04:43:00,68.7,62.7,30.03,ESE,112,0.0,0.0,81,0.00,,CLR,0.00,VWS V12.08,2013-06-17 08:43:00,
2013-06-17 04:48:00,68.7,62.7,30.03,ESE,112,0.0,0.0,81,0.00,,CLR,0.00,VWS V12.08,2013-06-17 08:48:00,
2013-06-17 04:53:00,68.7,63.0,30.03,ESE,112,0.0,0.0,82,0.00,,CLR,0.00,VWS V12.08,2013-06-17 08:53:00,
2013-06-17 04:58:00,68.7,63.0,30.04,NE,45,0.0,0.0,82,0.00,,CLR,0.00,VWS V12.08,2013-06-17 08:58:00,
2013-06-17 05:03:00,68.7,63.0,30.03,NE,45,0.0,0.0,82,0.00,,CLR,0.00,VWS V12.08,2013-06-17 09:03:00,
2013-06-17 05:08:00,68.7,63.3,30.03,East,90,2.2,2.2,83,0.00,,CLR,0.00,VWS V12.08,2013-06-17 09:08:00,
2013-06-17 05:13:00,69.1,63.7,30.04,South,180,0.9,2.2,83,0.00,,CLR,0.00,VWS V12.08,2013-06-17 09:13:00,
2013-06-17 05:18:00,69.1,63.7,30.04,ESE,112,2.7,2.7,83,0.00,,CLR,0.00,VWS V12.08,2013-06-17 09:18:00,
2013-06-17 05:23:00,69.1,63.7,30.04,SE,135,4.9,4.9,83,0.00,,CLR,0.00,VWS V12.08,2013-06-17 09:23:00,
2013-06-17 05:28:00,68.7,63.7,30.04,SE,135,0.4,4.9,84,0.02,,CLR,0.02,VWS V12.08,2013-06-17 09:28:00,
2013-06-17 05:33:00,68.7,63.7,30.05,NNE,22,0.0,4.9,84,0.04,,CLR,0.04,VWS V12.08,2013-06-17 09:33:00,
2013-06-17 05:38:00,68.7,63.7,30.04,NNE,22,0.0,4.9,84,0.04,,CLR,0.04,VWS V12.08,2013-06-17 09:38:00,
2013-06-17 05:43:00,67.8,62.5,30.04,ENE,68,0.0,0.0,83,0.06,,CLR,0.06,VWS V12.08,2013-06-17 09:43:00,
2013-06-17 05:48:00,67.8,62.8,30.04,NE,45,0.0,0.0,84,0.06,,CLR,0.06,VWS V12.08,2013-06-17 09:48:00,
2013-06-17 05:53:00,67.6,62.6,30.04,ENE,68,0.0,0.0,84,0.13,,CLR,0.13,VWS V12.08,2013-06-17 09:53:00,
2013-06-17 05:58:00,67.6,63.0,30.04,ENE,68,0.0,0.0,85,0.13,,CLR,0.15,VWS V12.08,2013-06-17 09:58:00,
2013-06-17 06:03:00,67.6,63.0,30.03,NNE,22,0.0,0.0,85,0.15,,CLR,0.15,VWS V12.08,2013-06-17 10:03:00,
2013-06-17 06:08:00,67.6,63.0,30.03,West,270,0.0,2.9,85,0.15,,CLR,0.15,VWS V12.08,2013-06-17 10:08:00,
2013-06-17 06:13:00,67.6,63.3,30.03,NNW,338,0.7,2.9,86,0.15,,CLR,0.15,VWS V12.08,2013-06-17 10:13:00,
2013-06-17 06:18:00,67.8,63.5,30.03,West,270,0.0,2.9,86,0.15,,CLR,0.15,VWS V12.08,2013-06-17 10:18:00,
2013-06-17 06:23:00,67.8,63.5,30.03,West,270,0.0,0.0,86,0.15,,CLR,0.15,VWS V12.08,2013-06-17 10:23:00,
2013-06-17 06:28:00,67.8,63.5,30.03,West,270,0.0,0.0,86,0.13,,CLR,0.15,VWS V12.08,2013-06-17 10:28:00,
2013-06-17 06:33:00,67.8,63.5,30.03,NW,315,0.0,0.0,86,0.13,,CLR,0.17,VWS V12.08,2013-06-17 10:33:00,
2013-06-17 06:38:00,67.8,63.5,30.01,NW,315,0.0,0.0,86,0.13,,CLR,0.17,VWS V12.08,2013-06-17 10:38:00,
2013-06-17 06:43:00,67.8,63.5,30.01,NW,315,0.0,0.0,86,0.13,,CLR,0.17,VWS V12.08,2013-06-17 10:43:00,
2013-06-17 06:48:00,67.8,63.5,30.01,NW,315,0.0,0.0,86,0.11,,CLR,0.17,VWS V12.08,2013-06-17 10:48:00,
2013-06-17 06:53:00,67.8,63.5,30.01,NW,315,0.0,0.0,86,0.04,,CLR,0.17,VWS V12.08,2013-06-17 10:53:00,
2013-06-17 06:58:00,67.8,63.8,30.01,NW,315,0.0,0.0,87,0.04,,CLR,0.17,VWS V12.08,2013-06-17 10:58:00,
2013-06-17 07:03:00,67.6,63.6,30.01,WNW,292,0.0,0.0,87,0.02,,CLR,0.17,VWS V12.08,2013-06-17 11:03:00,
2013-06-17 07:08:00,67.6,63.6,30.01,WNW,292,0.9,0.9,87,0.02,,CLR,0.17,VWS V12.08,2013-06-17 11:08:00,
2013-06-17 07:13:00,67.6,63.6,30.01,WNW,292,0.9,0.9,87,0.02,,CLR,0.17,VWS V12.08,2013-06-17 11:13:00,
2013-06-17 07:18:00,67.6,63.6,30.01,NW,315,0.0,0.9,87,0.02,,CLR,0.17,VWS V12.08,2013-06-17 11:18:00,
2013-06-17 07:23:00,67.8,63.8,30.01,NNW,338,0.0,0.0,87,0.02,,CLR,0.17,VWS V12.08,2013-06-17 11:23:00,
2013-06-17 07:28:00,67.8,64.1,30.02,NNW,338,0.0,3.8,88,0.02,,CLR,0.17,VWS V12.08,2013-06-17 11:28:00,
2013-06-17 07:33:00,67.8,64.1,30.02,NNW,338,0.0,3.8,88,0.00,,CLR,0.17,VWS V12.08,2013-06-17 11:33:00,
2013-06-17 07:38:00,67.8,64.1,30.02,NW,315,0.0,3.8,88,0.00,,CLR,0.17,VWS V12.08,2013-06-17 11:38:00,
2013-06-17 07:43:00,68.2,64.5,30.01,NNE,22,0.0,1.3,88,0.00,,CLR,0.17,VWS V12.08,2013-06-17 11:43:00,
2013-06-17 07:48:00,68.2,64.5,30.01,NNE,22,0.0,1.3,88,0.00,,CLR,0.17,VWS V12.08,2013-06-17 11:48:00,
2013-06-17 07:53:00,68.2,64.5,30.01,NNE,22,0.0,1.3,88,0.00,,CLR,0.17,VWS V12.08,2013-06-17 11:53:00,
2013-06-17 07:58:00,68.2,64.5,30.01,NNE,22,0.0,1.3,88,0.00,,CLR,0.17,VWS V12.08,2013-06-17 11:58:00,
2013-06-17 08:03:00,68.2,64.5,30.02,NW,315,0.0,0.0,88,0.00,,CLR,0.17,VWS V12.08,2013-06-17 12:03:00,
2013-06-17 08:08:00,68.2,64.5,30.02,NW,315,0.0,0.0,88,0.00,,CLR,0.17,VWS V12.08,2013-06-17 12:08:00,
2013-06-17 08:13:00,68.2,64.5,30.02,NW,315,0.0,0.0,88,0.00,,CLR,0.17,VWS V12.08,2013-06-17 12:13:00,
2013-06-17 08:18:00,68.2,64.5,30.02,North,0,0.0,0.0,88,0.00,,CLR,0.17,VWS V12.08,2013-06-17 12:18:00,
2013-06-17 08:23:00,68.2,64.5,30.02,North,0,0.0,0.0,88,0.00,,CLR,0.17,VWS V12.08,2013-06-17 12:23:00,
2013-06-17 08:28:00,68.2,64.5,30.03,North,0,0.0,0.0,88,0.00,,CLR,0.17,VWS V12.08,2013-06-17 12:28:00,
2013-06-17 08:33:00,68.5,64.8,30.03,North,0,0.0,0.0,88,0.00,,CLR,0.17,VWS V12.08,2013-06-17 12:33:00,
2013-06-17 08:38:00,68.5,64.8,30.03,ENE,68,0.7,0.7,88,0.00,,CLR,0.17,VWS V12.08,2013-06-17 12:38:00,
2013-06-17 08:43:00,68.7,65.0,30.03,ENE,68,0.0,0.0,88,0.00,,CLR,0.17,VWS V12.08,2013-06-17 12:43:00,
2013-06-17 08:48:00,68.7,65.0,30.03,ENE,68,0.0,0.0,88,0.00,,CLR,0.17,VWS V12.08,2013-06-17 12:48:00,
2013-06-17 08:53:00,68.9,65.2,30.04,ENE,68,0.0,0.0,88,0.00,,CLR,0.17,VWS V12.08,2013-06-17 12:53:00,
2013-06-17 08:58:00,69.4,65.7,30.03,ENE,68,0.0,0.0,88,0.00,,CLR,0.17,VWS V12.08,2013-06-17 12:58:00,
2013-06-17 09:03:00,69.4,65.7,30.04,ENE,68,0.0,0.0,88,0.00,,CLR,0.17,VWS V12.08,2013-06-17 13:03:00,
2013-06-17 09:08:00,69.4,65.7,30.03,ENE,68,0.0,0.0,88,0.00,,CLR,0.17,VWS V12.08,2013-06-17 13:08:00,
2013-06-17 09:13:00,69.4,65.7,30.03,ENE,68,0.0,0.0,88,0.00,,CLR,0.17,VWS V12.08,2013-06-17 13:13:00,
2013-06-17 09:18:00,70.0,66.3,30.03,ENE,68,0.0,0.0,88,0.00,,CLR,0.17,VWS V12.08,2013-06-17 13:18:00,
2013-06-17 09:23:00,70.2,66.4,30.03,ENE,68,0.0,0.0,88,0.00,,CLR,0.17,VWS V12.08,2013-06-17 13:23:00,
2013-06-17 09:28:00,70.3,66.6,30.03,ENE,68,0.0,0.0,88,0.00,,CLR,0.17,VWS V12.08,2013-06-17 13:28:00,
2013-06-17 09:33:00,70.5,66.8,30.03,ENE,68,0.0,0.0,88,0.00,,CLR,0.17,VWS V12.08,2013-06-17 13:33:00,
2013-06-17 09:38:00,70.5,66.8,30.03,ENE,68,0.0,0.0,88,0.00,,CLR,0.17,VWS V12.08,2013-06-17 13:38:00,
2013-06-17 09:43:00,70.5,66.8,30.03,ENE,68,0.0,0.0,88,0.00,,CLR,0.17,VWS V12.08,2013-06-17 13:43:00,
2013-06-17 09:48:00,70.5,66.8,30.03,ENE,68,0.0,0.0,88,0.00,,CLR,0.17,VWS V12.08,2013-06-17 13:48:00,
2013-06-17 09:53:00,70.5,66.8,30.02,ENE,68,0.0,0.0,88,0.00,,CLR,0.17,VWS V12.08,2013-06-17 13:53:00,
2013-06-17 09:58:00,72.1,68.1,30.02,ENE,68,0.0,0.0,87,0.00,,CLR,0.17,VWS V12.08,2013-06-17 13:58:00,
2013-06-17 10:03:00,72.3,68.2,30.02,ENE,68,0.0,0.0,87,0.00,,CLR,0.17,VWS V12.08,2013-06-17 14:03:00,
2013-06-17 10:08:00,72.3,68.2,30.02,East,90,0.0,0.0,87,0.00,,CLR,0.17,VWS V12.08,2013-06-17 14:08:00,
2013-06-17 10:13:00,72.3,68.2,30.02,East,90,0.0,0.0,87,0.00,,CLR,0.17,VWS V12.08,2013-06-17 14:13:00,
2013-06-17 10:18:00,73.0,68.6,30.02,NW,315,0.0,0.9,86,0.00,,CLR,0.17,VWS V12.08,2013-06-17 14:18:00,
2013-06-17 10:23:00,73.2,68.1,30.02,NW,315,0.0,0.0,84,0.00,,CLR,0.17,VWS V12.08,2013-06-17 14:23:00,
2013-06-17 10:28:00,73.6,68.1,30.02,NW,315,0.0,0.0,83,0.00,,CLR,0.17,VWS V12.08,2013-06-17 14:28:00,
2013-06-17 10:33:00,73.9,68.5,30.02,ENE,68,0.0,0.0,83,0.00,,CLR,0.17,VWS V12.08,2013-06-17 14:33:00,
2013-06-17 10:38:00,74.1,68.6,30.02,ENE,68,0.0,0.0,83,0.00,,CLR,0.17,VWS V12.08,2013-06-17 14:38:00,
2013-06-17 10:43:00,74.5,68.6,30.02,NW,315,0.0,1.6,82,0.00,,CLR,0.17,VWS V12.08,2013-06-17 14:43:00,
2013-06-17 10:48:00,74.5,68.6,30.02,NW,315,0.0,1.6,82,0.00,,CLR,0.17,VWS V12.08,2013-06-17 14:48:00,
2013-06-17 10:53:00,74.8,68.6,30.02,NW,315,0.0,1.6,81,0.00,,CLR,0.17,VWS V12.08,2013-06-17 14:53:00,
2013-06-17 10:58:00,75.0,68.8,30.02,NW,315,0.0,1.6,81,0.00,,CLR,0.17,VWS V12.08,2013-06-17 14:58:00,
2013-06-17 11:03:00,75.4,69.2,30.02,WNW,292,0.0,0.0,81,0.00,,CLR,0.17,VWS V12.08,2013-06-17 15:03:00,
2013-06-17 11:08:00,75.4,68.4,30.02,NW,315,0.0,0.0,79,0.00,,CLR,0.17,VWS V12.08,2013-06-17 15:08:00,
2013-06-17 11:13:00,75.4,68.1,30.02,WNW,292,0.0,0.0,78,0.00,,CLR,0.17,VWS V12.08,2013-06-17 15:13:00,
2013-06-17 11:18:00,75.4,68.4,30.02,WNW,292,0.0,0.0,79,0.00,,CLR,0.17,VWS V12.08,2013-06-17 15:18:00,
2013-06-17 11:23:00,75.7,69.1,30.02,WNW,292,0.0,0.0,80,0.00,,CLR,0.17,VWS V12.08,2013-06-17 15:23:00,
2013-06-17 11:28:00,76.1,68.4,30.02,NW,315,1.8,1.8,77,0.00,,CLR,0.17,VWS V12.08,2013-06-17 15:28:00,
2013-06-17 11:33:00,76.1,68.0,30.02,NW,315,0.0,1.8,76,0.00,,CLR,0.17,VWS V12.08,2013-06-17 15:33:00,
2013-06-17 11:38:00,76.1,67.6,30.02,NNW,338,0.0,1.8,75,0.00,,CLR,0.17,VWS V12.08,2013-06-17 15:38:00,
2013-06-17 11:43:00,76.3,67.4,30.02,NNW,338,0.0,0.0,74,0.00,,CLR,0.17,VWS V12.08,2013-06-17 15:43:00,
2013-06-17 11:48:00,76.5,67.6,30.01,NNW,338,0.0,0.0,74,0.00,,CLR,0.17,VWS V12.08,2013-06-17 15:48:00,
2013-06-17 11:53:00,77.0,69.6,30.01,NW,315,0.0,0.0,78,0.00,,CLR,0.17,VWS V12.08,2013-06-17 15:53:00,
2013-06-17 11:58:00,77.5,68.6,30.02,NW,315,0.0,0.0,74,0.00,,CLR,0.17,VWS V12.08,2013-06-17 15:58:00,
2013-06-17 12:03:00,78.1,68.3,30.02,NW,315,2.7,2.7,72,0.00,,CLR,0.17,VWS V12.08,2013-06-17 16:03:00,
2013-06-17 12:08:00,78.6,68.8,30.02,West,270,0.0,2.7,72,0.00,,CLR,0.17,VWS V12.08,2013-06-17 16:08:00,
2013-06-17 12:13:00,79.0,70.4,30.02,West,270,0.0,2.7,75,0.00,,CLR,0.17,VWS V12.08,2013-06-17 16:13:00,
2013-06-17 12:18:00,79.5,69.7,30.02,West,270,0.0,2.7,72,0.00,,CLR,0.17,VWS V12.08,2013-06-17 16:18:00,
2013-06-17 12:23:00,79.5,68.9,30.01,NE,45,1.6,1.6,70,0.00,,CLR,0.17,VWS V12.08,2013-06-17 16:23:00,
2013-06-17 12:28:00,79.5,69.3,30.02,NW,315,0.7,1.6,71,0.00,,CLR,0.17,VWS V12.08,2013-06-17 16:28:00,
2013-06-17 12:33:00,79.5,69.3,30.02,WNW,292,0.0,1.6,71,0.00,,CLR,0.17,VWS V12.08,2013-06-17 16:33:00,
2013-06-17 12:38:00,79.3,68.3,30.01,NNW,338,0.0,1.6,69,0.00,,CLR,0.17,VWS V12.08,2013-06-17 16:38:00,
2013-06-17 12:44:00,80.1,68.6,30.01,NW,315,0.0,0.7,68,0.00,,CLR,0.17,VWS V12.08,2013-06-17 16:44:00,
2013-06-17 12:49:00,80.8,68.8,30.01,NNW,338,0.0,0.7,67,0.00,,CLR,0.17,VWS V12.08,2013-06-17 16:49:00,
2013-06-17 12:54:00,81.0,69.0,30.01,WNW,292,0.0,0.7,67,0.00,,CLR,0.17,VWS V12.08,2013-06-17 16:54:00,
2013-06-17 12:59:00,81.0,69.0,30.01,WNW,292,0.0,0.7,67,0.00,,CLR,0.17,VWS V12.08,2013-06-17 16:59:00,
2013-06-17 13:04:00,82.0,70.4,30.01,ENE,68,0.0,0.0,68,0.00,,CLR,0.17,VWS V12.08,2013-06-17 17:04:00,
2013-06-17 13:09:00,82.4,71.2,30.01,East,90,0.0,0.0,69,0.00,,CLR,0.17,VWS V12.08,2013-06-17 17:09:00,
2013-06-17 13:14:00,82.8,69.3,30.01,WNW,292,0.0,0.0,64,0.00,,CLR,0.17,VWS V12.08,2013-06-17 17:14:00,
2013-06-17 13:19:00,82.6,69.6,30.01,WNW,292,4.0,4.0,65,0.00,,CLR,0.17,VWS V12.08,2013-06-17 17:19:00,
2013-06-17 13:24:00,82.2,68.8,30.01,North,0,0.0,0.0,64,0.00,,CLR,0.17,VWS V12.08,2013-06-17 17:24:00,
2013-06-17 13:29:00,82.2,68.8,30.01,ENE,68,0.0,0.9,64,0.00,,CLR,0.17,VWS V12.08,2013-06-17 17:29:00,
2013-06-17 13:34:00,82.2,70.2,30.00,North,0,0.0,1.1,67,0.00,,CLR,0.17,VWS V12.08,2013-06-17 17:34:00,
2013-06-17 13:39:00,82.9,70.0,30.00,WSW,248,0.0,2.9,65,0.00,,CLR,0.17,VWS V12.08,2013-06-17 17:39:00,
2013-06-17 13:44:00,83.3,69.4,30.00,North,0,0.0,0.0,63,0.00,,CLR,0.17,VWS V12.08,2013-06-17 17:44:00,
2013-06-17 13:49:00,83.1,69.2,30.00,East,90,0.0,4.5,63,0.00,,CLR,0.17,VWS V12.08,2013-06-17 17:49:00,
2013-06-17 13:54:00,82.9,68.6,30.01,ENE,68,0.0,4.5,62,0.00,,CLR,0.17,VWS V12.08,2013-06-17 17:54:00,
2013-06-17 13:59:00,82.6,68.2,30.01,ENE,68,0.0,4.5,62,0.00,,CLR,0.17,VWS V12.08,2013-06-17 17:59:00,
2013-06-17 14:04:00,80.1,66.3,30.02,NW,315,0.0,0.7,63,0.00,,CLR,0.17,VWS V12.08,2013-06-17 18:04:00,
2013-06-17 14:09:00,77.7,65.0,30.02,NW,315,7.8,7.8,65,0.00,,CLR,0.17,VWS V12.08,2013-06-17 18:09:00,
2013-06-17 14:14:00,75.6,63.8,30.02,NNW,338,0.0,7.8,67,0.00,,CLR,0.17,VWS V12.08,2013-06-17 18:14:00,
2013-06-17 14:19:00,74.8,64.0,30.01,West,270,0.0,7.8,69,0.00,,CLR,0.17,VWS V12.08,2013-06-17 18:19:00,
2013-06-17 14:24:00,73.2,64.1,30.03,ENE,68,0.0,0.0,73,0.00,,CLR,0.17,VWS V12.08,2013-06-17 18:24:00,
2013-06-17 14:29:00,73.2,64.1,30.03,ENE,68,0.0,0.0,73,0.00,,CLR,0.17,VWS V12.08,2013-06-17 18:29:00,
2013-06-17 14:34:00,72.3,64.3,30.01,ENE,68,0.0,0.0,76,0.04,,CLR,0.41,VWS V12.08,2013-06-17 18:34:00,
2013-06-17 14:39:00,72.3,64.3,30.01,ENE,68,0.0,0.0,76,0.24,,CLR,0.41,VWS V12.08,2013-06-17 18:39:00,
2013-06-17 14:44:00,72.0,64.7,30.01,ENE,68,0.0,0.0,78,0.28,,CLR,0.45,VWS V12.08,2013-06-17 18:44:00,
2013-06-17 14:49:00,72.0,65.1,30.01,East,90,0.0,0.0,79,0.28,,CLR,0.45,VWS V12.08,2013-06-17 18:49:00,
2013-06-17 14:54:00,72.0,65.1,30.00,East,90,0.0,0.0,79,0.28,,CLR,0.45,VWS V12.08,2013-06-17 18:54:00,
2013-06-17 14:59:00,72.0,65.1,30.00,East,90,0.0,0.0,79,0.28,,CLR,0.45,VWS V12.08,2013-06-17 18:59:00,
2013-06-17 15:04:00,73.2,67.4,30.00,ENE,68,0.0,0.0,82,0.28,,CLR,0.45,VWS V12.08,2013-06-17 19:04:00,
2013-06-17 15:09:00,74.1,68.3,30.00,ENE,68,0.0,0.0,82,0.28,,CLR,0.45,VWS V12.08,2013-06-17 19:09:00,
2013-06-17 15:14:00,74.5,68.3,29.99,ENE,68,0.0,0.0,81,0.28,,CLR,0.45,VWS V12.08,2013-06-17 19:14:00,
2013-06-17 15:19:00,74.8,68.3,30.00,ENE,68,0.0,0.0,80,0.28,,CLR,0.45,VWS V12.08,2013-06-17 19:19:00,
2013-06-17 15:24:00,74.8,68.3,29.99,ENE,68,0.0,0.0,80,0.28,,CLR,0.45,VWS V12.08,2013-06-17 19:24:00,
2013-06-17 15:29:00,74.8,68.3,29.99,ENE,68,0.0,0.0,80,0.24,,CLR,0.45,VWS V12.08,2013-06-17 19:29:00,
2013-06-17 15:34:00,74.8,68.3,29.98,ENE,68,0.0,0.0,80,0.04,,CLR,0.45,VWS V12.08,2013-06-17 19:34:00,
2013-06-17 15:39:00,74.8,68.3,29.99,ENE,68,0.0,0.0,80,0.00,,CLR,0.45,VWS V12.08,2013-06-17 19:39:00,
2013-06-17 15:44:00,75.0,68.8,29.99,ENE,68,0.0,0.0,81,0.00,,CLR,0.45,VWS V12.08,2013-06-17 19:44:00,
2013-06-17 15:49:00,75.0,68.8,29.98,ENE,68,0.0,0.0,81,0.00,,CLR,0.45,VWS V12.08,2013-06-17 19:49:00,
2013-06-17 15:54:00,75.7,69.9,29.98,ENE,68,0.0,0.0,82,0.00,,CLR,0.45,VWS V12.08,2013-06-17 19:54:00,
2013-06-17 15:59:00,76.8,70.9,29.98,East,90,0.0,0.0,82,0.00,,CLR,0.45,VWS V12.08,2013-06-17 19:59:00,
2013-06-17 16:04:00,76.8,70.6,29.98,East,90,0.0,0.0,81,0.00,,CLR,0.45,VWS V12.08,2013-06-17 20:04:00,
2013-06-17 16:09:00,76.8,70.6,29.98,East,90,0.0,0.0,81,0.00,,CLR,0.45,VWS V12.08,2013-06-17 20:09:00,
2013-06-17 16:14:00,77.2,69.8,29.97,East,90,0.0,0.0,78,0.00,,CLR,0.45,VWS V12.08,2013-06-17 20:14:00,
2013-06-17 16:19:00,77.7,70.3,29.97,East,90,0.0,0.0,78,0.00,,CLR,0.45,VWS V12.08,2013-06-17 20:19:00,
2013-06-17 16:24:00,78.3,70.1,29.98,NE,45,0.0,0.0,76,0.00,,CLR,0.45,VWS V12.08,2013-06-17 20:24:00,
2013-06-17 16:29:00,78.1,69.9,29.97,ENE,68,0.0,0.0,76,0.00,,CLR,0.45,VWS V12.08,2013-06-17 20:29:00,
2013-06-17 16:34:00,77.5,69.8,29.98,ENE,68,0.0,0.0,77,0.00,,CLR,0.45,VWS V12.08,2013-06-17 20:34:00,
2013-06-17 16:39:00,77.4,69.6,29.97,ENE,68,0.0,0.0,77,0.00,,CLR,0.45,VWS V12.08,2013-06-17 20:39:00,
2013-06-17 16:44:00,76.8,69.1,29.97,East,90,0.0,0.0,77,0.00,,CLR,0.45,VWS V12.08,2013-06-17 20:44:00,
2013-06-17 16:49:00,76.6,69.3,29.97,East,90,0.0,0.0,78,0.00,,CLR,0.45,VWS V12.08,2013-06-17 20:49:00,
2013-06-17 16:54:00,76.5,69.1,29.97,East,90,0.0,0.0,78,0.00,,CLR,0.45,VWS V12.08,2013-06-17 20:54:00,
2013-06-17 16:59:00,76.3,68.9,29.97,ENE,68,0.0,0.0,78,0.00,,CLR,0.45,VWS V12.08,2013-06-17 20:59:00,
2013-06-17 17:04:00,76.1,68.4,29.96,East,90,0.0,0.0,77,0.00,,CLR,0.45,VWS V12.08,2013-06-17 21:04:00,
2013-06-17 17:09:00,75.9,68.6,29.97,East,90,0.0,0.0,78,0.00,,CLR,0.45,VWS V12.08,2013-06-17 21:09:00,
2013-06-17 17:14:00,75.4,68.4,29.97,East,90,0.0,0.0,79,0.00,,CLR,0.45,VWS V12.08,2013-06-17 21:14:00,
2013-06-17 17:19:00,75.4,68.4,29.97,East,90,0.0,0.0,79,0.00,,CLR,0.45,VWS V12.08,2013-06-17 21:19:00,
2013-06-17 17:24:00,75.0,68.4,29.97,East,90,0.0,0.0,80,0.00,,CLR,0.45,VWS V12.08,2013-06-17 21:24:00,
2013-06-17 17:29:00,74.8,68.6,29.97,East,90,0.0,0.0,81,0.00,,CLR,0.45,VWS V12.08,2013-06-17 21:29:00,
2013-06-17 17:34:00,74.8,68.6,29.97,East,90,0.0,0.0,81,0.00,,CLR,0.45,VWS V12.08,2013-06-17 21:34:00,
2013-06-17 17:39:00,74.7,68.4,29.97,East,90,0.0,0.7,81,0.00,,CLR,0.45,VWS V12.08,2013-06-17 21:39:00,
2013-06-17 17:44:00,74.8,68.6,29.97,East,90,0.0,0.0,81,0.00,,CLR,0.45,VWS V12.08,2013-06-17 21:44:00,
2013-06-17 17:49:00,74.8,68.6,29.97,East,90,0.0,0.0,81,0.00,,CLR,0.45,VWS V12.08,2013-06-17 21:49:00,
2013-06-17 17:54:00,74.8,68.6,29.96,East,90,0.0,0.0,81,0.00,,CLR,0.45,VWS V12.08,2013-06-17 21:54:00,
2013-06-17 17:59:00,74.8,68.6,29.96,East,90,0.0,0.0,81,0.00,,CLR,0.45,VWS V12.08,2013-06-17 21:59:00,
2013-06-17 18:04:00,75.0,68.8,29.96,East,90,0.0,0.0,81,0.00,,CLR,0.45,VWS V12.08,2013-06-17 22:04:00,
2013-06-17 18:09:00,75.0,68.8,29.96,East,90,0.0,0.0,81,0.00,,CLR,0.45,VWS V12.08,2013-06-17 22:09:00,
2013-06-17 18:14:00,75.4,69.2,29.97,East,90,0.0,0.0,81,0.00,,CLR,0.45,VWS V12.08,2013-06-17 22:14:00,
2013-06-17 18:19:00,75.6,69.3,29.96,East,90,0.0,0.0,81,0.00,,CLR,0.45,VWS V12.08,2013-06-17 22:19:00,
2013-06-17 18:24:00,75.4,69.2,29.96,East,90,0.0,0.0,81,0.00,,CLR,0.45,VWS V12.08,2013-06-17 22:24:00,
2013-06-17 18:29:00,75.4,69.2,29.97,East,90,0.0,0.0,81,0.00,,CLR,0.45,VWS V12.08,2013-06-17 22:29:00,
2013-06-17 18:34:00,75.6,69.3,29.97,East,90,0.0,0.0,81,0.00,,CLR,0.45,VWS V12.08,2013-06-17 22:34:00,
2013-06-17 18:39:00,75.9,70.0,29.96,East,90,0.0,0.0,82,0.00,,CLR,0.45,VWS V12.08,2013-06-17 22:39:00,
2013-06-17 18:44:00,75.9,69.7,29.96,East,90,0.0,0.0,81,0.00,,CLR,0.45,VWS V12.08,2013-06-17 22:44:00,
2013-06-17 18:49:00,75.9,69.7,29.97,East,90,0.0,0.0,81,0.00,,CLR,0.45,VWS V12.08,2013-06-17 22:49:00,
2013-06-17 18:54:00,75.9,69.7,29.96,East,90,0.0,0.0,81,0.00,,CLR,0.45,VWS V12.08,2013-06-17 22:54:00,
2013-06-17 18:59:00,75.6,69.3,29.97,East,90,0.0,0.0,81,0.00,,CLR,0.45,VWS V12.08,2013-06-17 22:59:00,
2013-06-17 19:04:00,75.4,69.2,29.97,East,90,0.0,0.0,81,0.00,,CLR,0.45,VWS V12.08,2013-06-17 23:04:00,
2013-06-17 19:09:00,75.4,69.2,29.96,East,90,0.0,0.0,81,0.00,,CLR,0.45,VWS V12.08,2013-06-17 23:09:00,
2013-06-17 19:14:00,75.4,69.5,29.96,ESE,112,0.0,0.0,82,0.00,,CLR,0.45,VWS V12.08,2013-06-17 23:14:00,
2013-06-17 19:19:00,75.4,69.5,29.97,ESE,112,0.0,0.0,82,0.00,,CLR,0.45,VWS V12.08,2013-06-17 23:19:00,
2013-06-17 19:24:00,75.0,69.2,29.96,ENE,68,0.0,0.0,82,0.00,,CLR,0.45,VWS V12.08,2013-06-17 23:24:00,
2013-06-17 19:29:00,75.0,69.2,29.96,ENE,68,0.0,0.0,82,0.00,,CLR,0.45,VWS V12.08,2013-06-17 23:29:00,
2013-06-17 19:34:00,75.4,69.5,29.96,ENE,68,0.0,0.0,82,0.00,,CLR,0.45,VWS V12.08,2013-06-17 23:34:00,
2013-06-17 19:39:00,75.7,69.9,29.96,ENE,68,0.0,0.0,82,0.00,,CLR,0.45,VWS V12.08,2013-06-17 23:39:00,
2013-06-17 19:44:00,75.7,69.9,29.96,ENE,68,0.0,0.0,82,0.00,,CLR,0.45,VWS V12.08,2013-06-17 23:44:00,
2013-06-17 19:49:00,75.7,69.9,29.96,ENE,68,0.0,0.0,82,0.00,,CLR,0.45,VWS V12.08,2013-06-17 23:49:00,
2013-06-17 19:54:00,75.2,69.0,29.96,ENE,68,0.0,0.0,81,0.00,,CLR,0.45,VWS V12.08,2013-06-17 23:54:00,
2013-06-17 19:59:00,74.8,69.0,29.96,ENE,68,0.0,0.0,82,0.00,,CLR,0.45,VWS V12.08,2013-06-17 23:59:00,
2013-06-17 20:04:00,74.8,69.0,29.96,ENE,68,0.0,0.0,82,0.00,,CLR,0.45,VWS V12.08,2013-06-18 00:04:00,
2013-06-17 20:09:00,74.3,68.4,29.96,ENE,68,0.0,0.0,82,0.00,,CLR,0.45,VWS V12.08,2013-06-18 00:09:00,
2013-06-17 20:14:00,73.9,68.5,29.96,ENE,68,0.0,0.0,83,0.00,,CLR,0.45,VWS V12.08,2013-06-18 00:14:00,
2013-06-17 20:19:00,73.9,68.5,29.96,ENE,68,0.0,0.0,83,0.00,,CLR,0.45,VWS V12.08,2013-06-18 00:19:00,
2013-06-17 20:24:00,73.8,68.3,29.96,ENE,68,0.0,0.0,83,0.00,,CLR,0.45,VWS V12.08,2013-06-18 00:24:00,
2013-06-17 20:29:00,73.8,68.3,29.96,ENE,68,0.0,0.0,83,0.00,,CLR,0.45,VWS V12.08,2013-06-18 00:29:00,
2013-06-17 20:34:00,73.4,67.9,29.96,ENE,68,0.0,0.0,83,0.00,,CLR,0.45,VWS V12.08,2013-06-18 00:34:00,
2013-06-17 20:39:00,73.2,67.8,29.96,East,90,0.0,0.0,83,0.00,,CLR,0.45,VWS V12.08,2013-06-18 00:39:00,
2013-06-17 20:44:00,73.0,67.6,29.96,East,90,0.0,0.0,83,0.00,,CLR,0.45,VWS V12.08,2013-06-18 00:44:00,
2013-06-17 20:49:00,73.0,67.6,29.96,East,90,0.0,0.0,83,0.00,,CLR,0.45,VWS V12.08,2013-06-18 00:49:00,
2013-06-17 20:54:00,72.7,67.2,29.97,East,90,0.0,0.0,83,0.00,,CLR,0.45,VWS V12.08,2013-06-18 00:54:00,
2013-06-17 20:59:00,72.5,67.4,29.97,East,90,0.0,0.0,84,0.00,,CLR,0.45,VWS V12.08,2013-06-18 00:59:00,
2013-06-17 21:04:00,72.5,67.4,29.96,East,90,0.0,0.0,84,0.00,,CLR,0.45,VWS V12.08,2013-06-18 01:04:00,
2013-06-17 21:09:00,72.5,67.4,29.97,East,90,0.0,0.0,84,0.00,,CLR,0.45,VWS V12.08,2013-06-18 01:09:00,
2013-06-17 21:14:00,72.1,67.0,29.97,East,90,0.0,0.0,84,0.00,,CLR,0.45,VWS V12.08,2013-06-18 01:14:00,
2013-06-17 21:19:00,72.1,67.0,29.97,East,90,0.0,0.0,84,0.00,,CLR,0.45,VWS V12.08,2013-06-18 01:19:00,
2013-06-17 21:24:00,72.0,66.9,29.97,SSE,158,0.0,0.0,84,0.00,,CLR,0.45,VWS V12.08,2013-06-18 01:24:00,
2013-06-17 21:29:00,72.0,66.9,29.97,SSE,158,0.0,0.0,84,0.00,,CLR,0.45,VWS V12.08,2013-06-18 01:29:00,
2013-06-17 21:34:00,71.8,67.0,29.97,ESE,112,0.0,0.0,85,0.00,,CLR,0.45,VWS V12.08,2013-06-18 01:34:00,
2013-06-17 21:39:00,71.8,67.0,29.97,ESE,112,0.0,0.0,85,0.00,,CLR,0.45,VWS V12.08,2013-06-18 01:39:00,
2013-06-17 21:44:00,71.8,67.0,29.97,ESE,112,0.0,0.0,85,0.00,,CLR,0.45,VWS V12.08,2013-06-18 01:44:00,
2013-06-17 21:49:00,71.4,66.7,29.97,ENE,68,0.0,0.0,85,0.00,,CLR,0.45,VWS V12.08,2013-06-18 01:49:00,
2013-06-17 21:54:00,71.4,66.7,29.97,ENE,68,0.0,0.0,85,0.00,,CLR,0.45,VWS V12.08,2013-06-18 01:54:00,
2013-06-17 21:59:00,71.4,67.0,29.98,ENE,68,0.0,0.0,86,0.00,,CLR,0.45,VWS V12.08,2013-06-18 01:59:00,
2013-06-17 22:04:00,71.4,67.0,29.98,ENE,68,0.0,0.0,86,0.00,,CLR,0.45,VWS V12.08,2013-06-18 02:04:00,
2013-06-17 22:09:00,71.2,66.8,29.98,ENE,68,0.0,0.0,86,0.00,,CLR,0.45,VWS V12.08,2013-06-18 02:09:00,
2013-06-17 22:14:00,71.2,66.8,29.98,East,90,0.0,0.0,86,0.00,,CLR,0.45,VWS V12.08,2013-06-18 02:14:00,
2013-06-17 22:19:00,71.2,66.8,29.98,East,90,0.0,0.0,86,0.00,,CLR,0.45,VWS V12.08,2013-06-18 02:19:00,
2013-06-17 22:24:00,71.1,66.7,29.99,ENE,68,0.0,0.0,86,0.00,,CLR,0.45,VWS V12.08,2013-06-18 02:24:00,
2013-06-17 22:29:00,70.9,66.5,29.99,ENE,68,0.0,0.0,86,0.00,,CLR,0.45,VWS V12.08,2013-06-18 02:29:00,
2013-06-17 22:34:00,70.9,66.5,29.99,ENE,68,0.0,0.0,86,0.00,,CLR,0.45,VWS V12.08,2013-06-18 02:34:00,
2013-06-17 22:39:00,70.9,66.5,29.99,ENE,68,0.0,0.0,86,0.00,,CLR,0.45,VWS V12.08,2013-06-18 02:39:00,
2013-06-17 22:44:00,70.7,66.3,29.99,ENE,68,0.0,0.0,86,0.00,,CLR,0.45,VWS V12.08,2013-06-18 02:44:00,
2013-06-17 22:49:00,70.5,66.5,29.99,East,90,0.0,0.0,87,0.00,,CLR,0.45,VWS V12.08,2013-06-18 02:49:00,
2013-06-17 22:54:00,70.5,66.5,29.99,East,90,0.0,0.0,87,0.00,,CLR,0.45,VWS V12.08,2013-06-18 02:54:00,
2013-06-17 22:59:00,70.5,66.5,29.99,East,90,0.0,0.0,87,0.00,,CLR,0.45,VWS V12.08,2013-06-18 02:59:00,
2013-06-17 23:04:00,70.3,66.3,29.99,East,90,0.0,0.0,87,0.00,,CLR,0.45,VWS V12.08,2013-06-18 03:04:00,
2013-06-17 23:09:00,70.3,66.3,29.99,East,90,0.0,0.0,87,0.00,,CLR,0.45,VWS V12.08,2013-06-18 03:09:00,
2013-06-17 23:14:00,70.3,66.3,29.99,WNW,292,0.0,0.0,87,0.00,,CLR,0.45,VWS V12.08,2013-06-18 03:14:00,
2013-06-17 23:19:00,70.3,66.3,29.99,West,270,0.0,0.0,87,0.02,,CLR,0.48,VWS V12.08,2013-06-18 03:19:00,
2013-06-17 23:24:00,70.3,66.3,29.99,WNW,292,0.0,0.0,87,0.09,,CLR,0.54,VWS V12.08,2013-06-18 03:24:00,
2013-06-17 23:29:00,70.3,66.3,29.99,WNW,292,0.0,0.0,87,0.09,,CLR,0.54,VWS V12.08,2013-06-18 03:29:00,
2013-06-17 23:34:00,70.2,66.1,29.99,WNW,292,0.0,0.0,87,0.11,,CLR,0.56,VWS V12.08,2013-06-18 03:34:00,
2013-06-17 23:39:00,70.0,65.9,29.99,WNW,292,0.0,0.0,87,0.11,,CLR,0.56,VWS V12.08,2013-06-18 03:39:00,
2013-06-17 23:44:00,70.0,65.9,29.99,North,0,0.0,0.0,87,0.11,,CLR,0.56,VWS V12.08,2013-06-18 03:44:00,
2013-06-17 23:49:00,70.0,65.9,29.98,NE,45,0.0,0.0,87,0.11,,CLR,0.56,VWS V12.08,2013-06-18 03:49:00,
2013-06-17 23:54:00,70.0,65.9,29.97,NNE,22,0.0,0.0,87,0.11,,CLR,0.56,VWS V12.08,2013-06-18 03:54:00,
2013-06-17 23:59:00,70.0,65.9,29.97,NNE,22,0.0,0.0,87,0.11,,CLR,0.56,VWS V12.08,2013-06-18 03:59:00,